sensor_id;sensor_type;location;lat;lon;timestamp;temperature;humidity
13346;DHT22;6742;48.036;15.780;2023-04-06T00:00:33;0.30;98.40
13346;DHT22;6742;48.036;15.780;2023-04-06T00:03:01;0.30;98.60
13346;DHT22;6742;48.036;15.780;2023-04-06T00:05:28;0.30;98.60
13346;DHT22;6742;48.036;15.780;2023-04-06T00:07:58;0.30;98.70
13346;DHT22;6742;48.036;15.780;2023-04-06T00:10:25;0.30;98.90
13346;DHT22;6742;48.036;15.780;2023-04-06T00:12:52;0.30;98.70
13346;DHT22;6742;48.036;15.780;2023-04-06T00:15:20;0.20;98.70
13346;DHT22;6742;48.036;15.780;2023-04-06T00:17:47;0.20;98.80
13346;DHT22;6742;48.036;15.780;2023-04-06T00:20:14;0.20;99.00
13346;DHT22;6742;48.036;15.780;2023-04-06T00:22:42;0.10;99.10
13346;DHT22;6742;48.036;15.780;2023-04-06T00:25:10;0.10;99.30
13346;DHT22;6742;48.036;15.780;2023-04-06T00:27:38;0.00;99.40
13346;DHT22;6742;48.036;15.780;2023-04-06T00:30:06;0.00;99.30
13346;DHT22;6742;48.036;15.780;2023-04-06T00:32:34;0.00;99.30
13346;DHT22;6742;48.036;15.780;2023-04-06T00:35:02;-0.10;99.30
13346;DHT22;6742;48.036;15.780;2023-04-06T00:37:29;-0.10;99.30
13346;DHT22;6742;48.036;15.780;2023-04-06T00:39:56;-0.10;99.30
13346;DHT22;6742;48.036;15.780;2023-04-06T00:42:25;-0.10;99.40
13346;DHT22;6742;48.036;15.780;2023-04-06T00:44:53;-0.10;99.20
13346;DHT22;6742;48.036;15.780;2023-04-06T00:47:20;-0.10;99.40
13346;DHT22;6742;48.036;15.780;2023-04-06T00:49:47;-0.10;99.40
13346;DHT22;6742;48.036;15.780;2023-04-06T00:52:15;-0.10;99.60
13346;DHT22;6742;48.036;15.780;2023-04-06T00:54:42;-0.20;99.70
13346;DHT22;6742;48.036;15.780;2023-04-06T00:57:09;-0.20;99.60
13346;DHT22;6742;48.036;15.780;2023-04-06T00:59:38;-0.20;99.60
13346;DHT22;6742;48.036;15.780;2023-04-06T01:02:06;-0.20;99.60
13346;DHT22;6742;48.036;15.780;2023-04-06T01:04:33;-0.30;99.70
13346;DHT22;6742;48.036;15.780;2023-04-06T01:07:00;-0.30;99.50
13346;DHT22;6742;48.036;15.780;2023-04-06T01:09:28;-0.20;99.40
13346;DHT22;6742;48.036;15.780;2023-04-06T01:11:55;-0.30;99.40
13346;DHT22;6742;48.036;15.780;2023-04-06T01:14:23;-0.30;99.20
13346;DHT22;6742;48.036;15.780;2023-04-06T01:16:52;-0.30;99.70
13346;DHT22;6742;48.036;15.780;2023-04-06T01:19:19;-0.30;99.50
13346;DHT22;6742;48.036;15.780;2023-04-06T01:21:47;-0.30;99.50
13346;DHT22;6742;48.036;15.780;2023-04-06T01:24:17;-0.30;99.50
13346;DHT22;6742;48.036;15.780;2023-04-06T01:26:45;-0.40;99.70
13346;DHT22;6742;48.036;15.780;2023-04-06T01:29:12;-0.40;99.70
13346;DHT22;6742;48.036;15.780;2023-04-06T01:31:39;-0.40;99.80
13346;DHT22;6742;48.036;15.780;2023-04-06T01:34:07;-0.40;99.70
13346;DHT22;6742;48.036;15.780;2023-04-06T01:36:34;-0.50;99.70
13346;DHT22;6742;48.036;15.780;2023-04-06T01:39:01;-0.50;99.70
13346;DHT22;6742;48.036;15.780;2023-04-06T01:41:29;-0.60;99.80
13346;DHT22;6742;48.036;15.780;2023-04-06T01:43:56;-0.60;99.80
13346;DHT22;6742;48.036;15.780;2023-04-06T01:46:23;-0.60;99.60
13346;DHT22;6742;48.036;15.780;2023-04-06T01:48:50;-0.60;99.90
13346;DHT22;6742;48.036;15.780;2023-04-06T01:51:18;-0.60;99.80
13346;DHT22;6742;48.036;15.780;2023-04-06T01:53:45;-0.60;99.70
13346;DHT22;6742;48.036;15.780;2023-04-06T01:56:12;-0.60;99.80
13346;DHT22;6742;48.036;15.780;2023-04-06T01:58:40;-0.70;99.90
13346;DHT22;6742;48.036;15.780;2023-04-06T02:01:09;-0.70;99.90
13346;DHT22;6742;48.036;15.780;2023-04-06T02:03:36;-0.70;99.90
13346;DHT22;6742;48.036;15.780;2023-04-06T02:06:03;-0.70;99.90
13346;DHT22;6742;48.036;15.780;2023-04-06T02:08:30;-0.70;99.90
13346;DHT22;6742;48.036;15.780;2023-04-06T02:10:57;-0.70;99.90
13346;DHT22;6742;48.036;15.780;2023-04-06T02:13:24;-0.70;99.90
13346;DHT22;6742;48.036;15.780;2023-04-06T02:15:53;-0.80;99.90
13346;DHT22;6742;48.036;15.780;2023-04-06T02:18:20;-0.80;99.90
13346;DHT22;6742;48.036;15.780;2023-04-06T02:20:48;-0.80;99.90
13346;DHT22;6742;48.036;15.780;2023-04-06T02:23:15;-0.80;99.90
13346;DHT22;6742;48.036;15.780;2023-04-06T02:25:42;-0.80;99.90
13346;DHT22;6742;48.036;15.780;2023-04-06T02:28:09;-0.80;99.90
13346;DHT22;6742;48.036;15.780;2023-04-06T02:30:36;-0.80;99.90
13346;DHT22;6742;48.036;15.780;2023-04-06T02:33:04;-0.80;99.90
13346;DHT22;6742;48.036;15.780;2023-04-06T02:35:31;-0.80;99.90
13346;DHT22;6742;48.036;15.780;2023-04-06T02:37:58;-0.80;99.90
13346;DHT22;6742;48.036;15.780;2023-04-06T02:40:25;-0.80;99.90
13346;DHT22;6742;48.036;15.780;2023-04-06T02:42:52;-0.90;99.80
13346;DHT22;6742;48.036;15.780;2023-04-06T02:45:20;-0.90;99.90
13346;DHT22;6742;48.036;15.780;2023-04-06T02:47:47;-1.00;99.90
13346;DHT22;6742;48.036;15.780;2023-04-06T02:50:15;-1.00;99.90
13346;DHT22;6742;48.036;15.780;2023-04-06T02:52:42;-1.00;99.90
13346;DHT22;6742;48.036;15.780;2023-04-06T02:55:09;-1.00;99.90
13346;DHT22;6742;48.036;15.780;2023-04-06T02:57:39;-1.00;99.90
13346;DHT22;6742;48.036;15.780;2023-04-06T03:00:07;-1.10;99.90
13346;DHT22;6742;48.036;15.780;2023-04-06T03:02:34;-1.10;99.90
13346;DHT22;6742;48.036;15.780;2023-04-06T03:05:02;-1.10;99.90
13346;DHT22;6742;48.036;15.780;2023-04-06T03:07:30;-1.10;99.90
13346;DHT22;6742;48.036;15.780;2023-04-06T03:09:57;-1.10;99.90
13346;DHT22;6742;48.036;15.780;2023-04-06T03:12:25;-1.10;99.90
13346;DHT22;6742;48.036;15.780;2023-04-06T03:14:52;-1.10;99.90
13346;DHT22;6742;48.036;15.780;2023-04-06T03:17:19;-1.10;99.90
13346;DHT22;6742;48.036;15.780;2023-04-06T03:19:46;-1.10;99.90
13346;DHT22;6742;48.036;15.780;2023-04-06T03:22:13;-1.20;99.90
13346;DHT22;6742;48.036;15.780;2023-04-06T03:24:41;-1.20;99.90
13346;DHT22;6742;48.036;15.780;2023-04-06T03:27:08;-1.20;99.90
13346;DHT22;6742;48.036;15.780;2023-04-06T03:29:35;-1.20;99.90
13346;DHT22;6742;48.036;15.780;2023-04-06T03:32:03;-1.30;99.90
13346;DHT22;6742;48.036;15.780;2023-04-06T03:34:30;-1.30;99.90
13346;DHT22;6742;48.036;15.780;2023-04-06T03:36:57;-1.30;99.90
13346;DHT22;6742;48.036;15.780;2023-04-06T03:39:24;-1.30;99.90
13346;DHT22;6742;48.036;15.780;2023-04-06T03:41:52;-1.30;99.90
13346;DHT22;6742;48.036;15.780;2023-04-06T03:44:19;-1.30;99.90
13346;DHT22;6742;48.036;15.780;2023-04-06T03:46:46;-1.30;99.90
13346;DHT22;6742;48.036;15.780;2023-04-06T03:49:13;-1.30;99.90
13346;DHT22;6742;48.036;15.780;2023-04-06T03:51:40;-1.30;99.90
13346;DHT22;6742;48.036;15.780;2023-04-06T03:54:07;-1.40;99.90
13346;DHT22;6742;48.036;15.780;2023-04-06T03:56:34;-1.40;99.90
13346;DHT22;6742;48.036;15.780;2023-04-06T03:59:03;-1.50;99.90
13346;DHT22;6742;48.036;15.780;2023-04-06T04:01:30;-1.50;99.90
13346;DHT22;6742;48.036;15.780;2023-04-06T04:03:57;-1.50;99.90
13346;DHT22;6742;48.036;15.780;2023-04-06T04:06:24;-1.50;99.90
13346;DHT22;6742;48.036;15.780;2023-04-06T04:08:51;-1.60;99.90
13346;DHT22;6742;48.036;15.780;2023-04-06T04:11:18;-1.50;99.90
13346;DHT22;6742;48.036;15.780;2023-04-06T04:13:45;-1.60;99.90
13346;DHT22;6742;48.036;15.780;2023-04-06T04:16:14;-1.50;99.90
13346;DHT22;6742;48.036;15.780;2023-04-06T04:18:41;-1.50;99.90
13346;DHT22;6742;48.036;15.780;2023-04-06T04:21:09;-1.60;99.90
13346;DHT22;6742;48.036;15.780;2023-04-06T04:23:36;-1.60;99.90
13346;DHT22;6742;48.036;15.780;2023-04-06T04:26:03;-1.70;99.90
13346;DHT22;6742;48.036;15.780;2023-04-06T04:28:30;-1.70;99.90
13346;DHT22;6742;48.036;15.780;2023-04-06T04:30:57;-1.70;99.90
13346;DHT22;6742;48.036;15.780;2023-04-06T04:33:26;-1.70;99.90
13346;DHT22;6742;48.036;15.780;2023-04-06T04:35:53;-1.60;99.90
13346;DHT22;6742;48.036;15.780;2023-04-06T04:38:20;-1.60;99.90
13346;DHT22;6742;48.036;15.780;2023-04-06T04:40:47;-1.60;99.90
13346;DHT22;6742;48.036;15.780;2023-04-06T04:43:14;-1.60;99.90
13346;DHT22;6742;48.036;15.780;2023-04-06T04:45:41;-1.60;99.90
13346;DHT22;6742;48.036;15.780;2023-04-06T04:48:08;-1.60;99.90
13346;DHT22;6742;48.036;15.780;2023-04-06T04:50:37;-1.60;99.90
13346;DHT22;6742;48.036;15.780;2023-04-06T04:53:04;-1.60;99.90
13346;DHT22;6742;48.036;15.780;2023-04-06T04:55:31;-1.50;99.90
13346;DHT22;6742;48.036;15.780;2023-04-06T04:57:58;-1.60;99.90
13346;DHT22;6742;48.036;15.780;2023-04-06T05:00:26;-1.60;99.90
13346;DHT22;6742;48.036;15.780;2023-04-06T05:02:53;-1.60;99.90
13346;DHT22;6742;48.036;15.780;2023-04-06T05:05:20;-1.70;99.90
13346;DHT22;6742;48.036;15.780;2023-04-06T05:07:48;-1.70;99.90
13346;DHT22;6742;48.036;15.780;2023-04-06T05:10:15;-1.70;99.90
13346;DHT22;6742;48.036;15.780;2023-04-06T05:12:42;-1.60;99.90
13346;DHT22;6742;48.036;15.780;2023-04-06T05:15:10;-1.60;99.90
13346;DHT22;6742;48.036;15.780;2023-04-06T05:17:37;-1.60;99.90
13346;DHT22;6742;48.036;15.780;2023-04-06T05:20:05;-1.60;99.90
13346;DHT22;6742;48.036;15.780;2023-04-06T05:22:32;-1.50;99.90
13346;DHT22;6742;48.036;15.780;2023-04-06T05:25:01;-1.30;99.90
13346;DHT22;6742;48.036;15.780;2023-04-06T05:27:28;-1.20;99.90
13346;DHT22;6742;48.036;15.780;2023-04-06T05:29:55;-1.10;99.90
13346;DHT22;6742;48.036;15.780;2023-04-06T05:32:22;-1.10;99.90
13346;DHT22;6742;48.036;15.780;2023-04-06T05:34:50;-1.10;99.90
13346;DHT22;6742;48.036;15.780;2023-04-06T05:37:17;-0.90;99.90
13346;DHT22;6742;48.036;15.780;2023-04-06T05:39:44;-0.50;99.90
13346;DHT22;6742;48.036;15.780;2023-04-06T05:42:13;0.20;99.50
13346;DHT22;6742;48.036;15.780;2023-04-06T05:44:40;1.50;98.60
13346;DHT22;6742;48.036;15.780;2023-04-06T05:47:08;3.30;96.00
13346;DHT22;6742;48.036;15.780;2023-04-06T05:49:35;5.00;92.90
13346;DHT22;6742;48.036;15.780;2023-04-06T05:52:02;6.50;90.00
13346;DHT22;6742;48.036;15.780;2023-04-06T05:54:30;7.20;87.50
13346;DHT22;6742;48.036;15.780;2023-04-06T05:56:57;7.90;85.30
13346;DHT22;6742;48.036;15.780;2023-04-06T05:59:25;8.40;82.70
13346;DHT22;6742;48.036;15.780;2023-04-06T06:01:52;8.60;81.30
13346;DHT22;6742;48.036;15.780;2023-04-06T06:04:19;9.00;79.90
13346;DHT22;6742;48.036;15.780;2023-04-06T06:06:46;9.00;78.60
13346;DHT22;6742;48.036;15.780;2023-04-06T06:09:13;9.30;78.30
13346;DHT22;6742;48.036;15.780;2023-04-06T06:11:40;10.00;76.30
13346;DHT22;6742;48.036;15.780;2023-04-06T06:14:07;10.50;75.10
13346;DHT22;6742;48.036;15.780;2023-04-06T06:16:36;10.90;73.90
13346;DHT22;6742;48.036;15.780;2023-04-06T06:19:04;11.00;72.70
13346;DHT22;6742;48.036;15.780;2023-04-06T06:21:31;11.10;72.70
13346;DHT22;6742;48.036;15.780;2023-04-06T06:23:58;11.70;71.40
13346;DHT22;6742;48.036;15.780;2023-04-06T06:26:25;12.00;69.40
13346;DHT22;6742;48.036;15.780;2023-04-06T06:28:52;11.90;69.90
13346;DHT22;6742;48.036;15.780;2023-04-06T06:31:19;12.00;69.30
13346;DHT22;6742;48.036;15.780;2023-04-06T06:33:49;11.70;69.00
13346;DHT22;6742;48.036;15.780;2023-04-06T06:36:17;11.70;69.30
13346;DHT22;6742;48.036;15.780;2023-04-06T06:38:44;12.10;70.60
13346;DHT22;6742;48.036;15.780;2023-04-06T06:41:11;12.90;68.50
13346;DHT22;6742;48.036;15.780;2023-04-06T06:43:38;13.60;65.70
13346;DHT22;6742;48.036;15.780;2023-04-06T06:46:06;14.00;64.60
13346;DHT22;6742;48.036;15.780;2023-04-06T06:48:33;14.60;64.00
13346;DHT22;6742;48.036;15.780;2023-04-06T06:51:02;15.00;63.00
13346;DHT22;6742;48.036;15.780;2023-04-06T06:53:29;15.30;62.50
13346;DHT22;6742;48.036;15.780;2023-04-06T06:55:56;15.30;61.50
13346;DHT22;6742;48.036;15.780;2023-04-06T06:58:23;15.00;60.60
13346;DHT22;6742;48.036;15.780;2023-04-06T07:00:50;14.90;62.30
13346;DHT22;6742;48.036;15.780;2023-04-06T07:03:17;14.80;61.40
13346;DHT22;6742;48.036;15.780;2023-04-06T07:05:47;14.60;61.10
13346;DHT22;6742;48.036;15.780;2023-04-06T07:08:20;14.90;62.50
13346;DHT22;6742;48.036;15.780;2023-04-06T07:10:47;15.30;62.00
13346;DHT22;6742;48.036;15.780;2023-04-06T07:13:14;14.80;62.30
13346;DHT22;6742;48.036;15.780;2023-04-06T07:15:46;15.00;61.90
13346;DHT22;6742;48.036;15.780;2023-04-06T07:18:13;15.40;61.30
13346;DHT22;6742;48.036;15.780;2023-04-06T07:20:40;15.80;60.00
13346;DHT22;6742;48.036;15.780;2023-04-06T07:23:07;16.00;59.80
13346;DHT22;6742;48.036;15.780;2023-04-06T07:25:36;15.80;60.40
13346;DHT22;6742;48.036;15.780;2023-04-06T07:28:03;15.80;60.90
13346;DHT22;6742;48.036;15.780;2023-04-06T07:30:30;15.60;61.90
13346;DHT22;6742;48.036;15.780;2023-04-06T07:32:58;15.40;61.40
13346;DHT22;6742;48.036;15.780;2023-04-06T07:35:26;15.40;62.50
13346;DHT22;6742;48.036;15.780;2023-04-06T07:37:53;15.30;61.40
13346;DHT22;6742;48.036;15.780;2023-04-06T07:40:20;15.20;62.80
13346;DHT22;6742;48.036;15.780;2023-04-06T07:42:49;14.70;61.70
13346;DHT22;6742;48.036;15.780;2023-04-06T07:45:16;14.20;64.10
13346;DHT22;6742;48.036;15.780;2023-04-06T07:47:43;14.10;65.20
13346;DHT22;6742;48.036;15.780;2023-04-06T07:50:11;13.60;65.70
13346;DHT22;6742;48.036;15.780;2023-04-06T07:52:38;13.60;65.20
13346;DHT22;6742;48.036;15.780;2023-04-06T07:55:06;13.70;65.80
13346;DHT22;6742;48.036;15.780;2023-04-06T07:57:33;13.50;66.40
13346;DHT22;6742;48.036;15.780;2023-04-06T08:00:02;13.50;68.30
13346;DHT22;6742;48.036;15.780;2023-04-06T08:02:31;13.00;67.60
13346;DHT22;6742;48.036;15.780;2023-04-06T08:04:58;12.40;70.00
13346;DHT22;6742;48.036;15.780;2023-04-06T08:07:25;12.50;71.30
13346;DHT22;6742;48.036;15.780;2023-04-06T08:09:52;12.60;68.60
13346;DHT22;6742;48.036;15.780;2023-04-06T08:12:22;12.70;67.80
13346;DHT22;6742;48.036;15.780;2023-04-06T08:14:49;12.80;68.60
13346;DHT22;6742;48.036;15.780;2023-04-06T08:17:18;12.80;68.30
13346;DHT22;6742;48.036;15.780;2023-04-06T08:19:45;12.80;67.30
13346;DHT22;6742;48.036;15.780;2023-04-06T08:22:12;12.70;66.70
13346;DHT22;6742;48.036;15.780;2023-04-06T08:24:39;12.20;67.60
13346;DHT22;6742;48.036;15.780;2023-04-06T08:27:06;12.00;68.90
13346;DHT22;6742;48.036;15.780;2023-04-06T08:29:33;11.90;72.40
13346;DHT22;6742;48.036;15.780;2023-04-06T08:32:00;11.60;71.30
13346;DHT22;6742;48.036;15.780;2023-04-06T08:34:32;11.60;70.90
13346;DHT22;6742;48.036;15.780;2023-04-06T08:36:59;11.80;70.50
13346;DHT22;6742;48.036;15.780;2023-04-06T08:39:27;12.10;71.50
13346;DHT22;6742;48.036;15.780;2023-04-06T08:41:56;12.30;70.90
13346;DHT22;6742;48.036;15.780;2023-04-06T08:44:25;12.50;69.90
13346;DHT22;6742;48.036;15.780;2023-04-06T08:46:52;12.20;70.00
13346;DHT22;6742;48.036;15.780;2023-04-06T08:49:20;12.10;69.90
13346;DHT22;6742;48.036;15.780;2023-04-06T08:51:49;12.00;69.50
13346;DHT22;6742;48.036;15.780;2023-04-06T08:54:16;12.00;70.30
13346;DHT22;6742;48.036;15.780;2023-04-06T08:56:43;12.00;70.60
13346;DHT22;6742;48.036;15.780;2023-04-06T08:59:11;11.70;72.30
13346;DHT22;6742;48.036;15.780;2023-04-06T09:01:39;11.30;72.10
13346;DHT22;6742;48.036;15.780;2023-04-06T09:04:08;11.40;73.30
13346;DHT22;6742;48.036;15.780;2023-04-06T09:06:36;11.40;72.40
13346;DHT22;6742;48.036;15.780;2023-04-06T09:09:05;11.00;73.00
13346;DHT22;6742;48.036;15.780;2023-04-06T09:11:45;11.10;72.50
13346;DHT22;6742;48.036;15.780;2023-04-06T09:14:13;11.00;70.70
13346;DHT22;6742;48.036;15.780;2023-04-06T09:16:41;10.80;72.00
13346;DHT22;6742;48.036;15.780;2023-04-06T09:19:09;10.90;73.90
13346;DHT22;6742;48.036;15.780;2023-04-06T09:21:36;11.10;75.30
13346;DHT22;6742;48.036;15.780;2023-04-06T09:24:07;11.50;72.80
13346;DHT22;6742;48.036;15.780;2023-04-06T09:26:44;11.10;70.70
13346;DHT22;6742;48.036;15.780;2023-04-06T09:29:22;10.80;73.00
13346;DHT22;6742;48.036;15.780;2023-04-06T09:31:49;10.60;71.80
13346;DHT22;6742;48.036;15.780;2023-04-06T09:34:21;10.50;71.20
13346;DHT22;6742;48.036;15.780;2023-04-06T09:36:49;10.20;72.10
13346;DHT22;6742;48.036;15.780;2023-04-06T09:39:20;10.10;72.70
13346;DHT22;6742;48.036;15.780;2023-04-06T09:41:50;9.90;72.30
13346;DHT22;6742;48.036;15.780;2023-04-06T09:44:18;9.90;72.30
13346;DHT22;6742;48.036;15.780;2023-04-06T09:46:49;10.00;74.40
13346;DHT22;6742;48.036;15.780;2023-04-06T09:49:17;10.00;73.40
13346;DHT22;6742;48.036;15.780;2023-04-06T09:51:47;10.00;72.80
13346;DHT22;6742;48.036;15.780;2023-04-06T09:54:20;9.90;72.70
13346;DHT22;6742;48.036;15.780;2023-04-06T09:56:51;10.00;75.30
13346;DHT22;6742;48.036;15.780;2023-04-06T09:59:26;10.10;74.60
13346;DHT22;6742;48.036;15.780;2023-04-06T10:01:56;10.10;73.30
13346;DHT22;6742;48.036;15.780;2023-04-06T10:04:32;10.20;73.20
13346;DHT22;6742;48.036;15.780;2023-04-06T10:07:04;10.30;73.50
13346;DHT22;6742;48.036;15.780;2023-04-06T10:09:35;10.30;75.00
13346;DHT22;6742;48.036;15.780;2023-04-06T10:12:04;9.90;71.90
13346;DHT22;6742;48.036;15.780;2023-04-06T10:14:33;9.70;71.90
13346;DHT22;6742;48.036;15.780;2023-04-06T10:17:03;9.40;73.00
13346;DHT22;6742;48.036;15.780;2023-04-06T10:19:37;9.40;75.30
13346;DHT22;6742;48.036;15.780;2023-04-06T10:22:08;9.20;75.00
13346;DHT22;6742;48.036;15.780;2023-04-06T10:24:40;9.20;73.60
13346;DHT22;6742;48.036;15.780;2023-04-06T10:27:07;9.20;75.70
13346;DHT22;6742;48.036;15.780;2023-04-06T10:29:44;9.10;74.90
13346;DHT22;6742;48.036;15.780;2023-04-06T10:32:12;9.10;75.00
13346;DHT22;6742;48.036;15.780;2023-04-06T10:34:39;9.30;74.70
13346;DHT22;6742;48.036;15.780;2023-04-06T10:37:16;9.50;75.70
13346;DHT22;6742;48.036;15.780;2023-04-06T10:39:52;9.70;73.70
13346;DHT22;6742;48.036;15.780;2023-04-06T10:42:24;9.90;75.70
13346;DHT22;6742;48.036;15.780;2023-04-06T10:44:51;10.10;75.20
13346;DHT22;6742;48.036;15.780;2023-04-06T10:47:18;9.80;73.00
13346;DHT22;6742;48.036;15.780;2023-04-06T10:49:45;9.90;76.20
13346;DHT22;6742;48.036;15.780;2023-04-06T10:52:12;10.30;75.00
13346;DHT22;6742;48.036;15.780;2023-04-06T10:54:43;10.60;75.50
13346;DHT22;6742;48.036;15.780;2023-04-06T10:57:12;10.60;74.30
13346;DHT22;6742;48.036;15.780;2023-04-06T10:59:42;10.80;72.00
13346;DHT22;6742;48.036;15.780;2023-04-06T11:02:19;10.80;72.40
13346;DHT22;6742;48.036;15.780;2023-04-06T11:04:54;11.10;72.50
13346;DHT22;6742;48.036;15.780;2023-04-06T11:07:25;11.40;74.00
13346;DHT22;6742;48.036;15.780;2023-04-06T11:09:53;11.60;69.60
13346;DHT22;6742;48.036;15.780;2023-04-06T11:12:25;11.70;71.10
13346;DHT22;6742;48.036;15.780;2023-04-06T11:14:54;11.80;69.60
13346;DHT22;6742;48.036;15.780;2023-04-06T11:17:26;11.90;69.10
13346;DHT22;6742;48.036;15.780;2023-04-06T11:19:53;11.70;68.80
13346;DHT22;6742;48.036;15.780;2023-04-06T11:22:20;11.60;68.60
13346;DHT22;6742;48.036;15.780;2023-04-06T11:24:47;11.50;69.20
13346;DHT22;6742;48.036;15.780;2023-04-06T11:27:15;11.40;73.70
13346;DHT22;6742;48.036;15.780;2023-04-06T11:29:44;11.50;74.70
13346;DHT22;6742;48.036;15.780;2023-04-06T11:32:20;11.90;72.20
13346;DHT22;6742;48.036;15.780;2023-04-06T11:34:48;12.10;72.70
13346;DHT22;6742;48.036;15.780;2023-04-06T11:37:15;12.10;70.40
13346;DHT22;6742;48.036;15.780;2023-04-06T11:39:47;11.90;68.30
13346;DHT22;6742;48.036;15.780;2023-04-06T11:42:21;11.50;71.10
13346;DHT22;6742;48.036;15.780;2023-04-06T11:44:51;11.50;69.50
13346;DHT22;6742;48.036;15.780;2023-04-06T11:47:19;11.30;71.40
13346;DHT22;6742;48.036;15.780;2023-04-06T11:49:48;11.30;72.60
13346;DHT22;6742;48.036;15.780;2023-04-06T11:52:17;11.20;72.50
13346;DHT22;6742;48.036;15.780;2023-04-06T11:54:45;11.20;69.40
13346;DHT22;6742;48.036;15.780;2023-04-06T11:57:12;11.20;70.60
13346;DHT22;6742;48.036;15.780;2023-04-06T11:59:40;11.30;73.10
13346;DHT22;6742;48.036;15.780;2023-04-06T12:02:09;11.30;71.70
13346;DHT22;6742;48.036;15.780;2023-04-06T12:04:39;11.40;72.70
13346;DHT22;6742;48.036;15.780;2023-04-06T12:07:06;11.50;70.20
13346;DHT22;6742;48.036;15.780;2023-04-06T12:09:33;11.50;71.00
13346;DHT22;6742;48.036;15.780;2023-04-06T12:12:02;11.40;70.10
13346;DHT22;6742;48.036;15.780;2023-04-06T12:14:29;11.30;71.10
13346;DHT22;6742;48.036;15.780;2023-04-06T12:16:56;11.30;71.60
13346;DHT22;6742;48.036;15.780;2023-04-06T12:19:25;11.20;72.40
13346;DHT22;6742;48.036;15.780;2023-04-06T12:21:52;11.10;73.90
13346;DHT22;6742;48.036;15.780;2023-04-06T12:24:20;11.10;71.90
13346;DHT22;6742;48.036;15.780;2023-04-06T12:26:47;10.80;74.50
13346;DHT22;6742;48.036;15.780;2023-04-06T12:29:14;10.80;74.10
13346;DHT22;6742;48.036;15.780;2023-04-06T12:31:41;10.90;75.50
13346;DHT22;6742;48.036;15.780;2023-04-06T12:34:10;11.00;75.00
13346;DHT22;6742;48.036;15.780;2023-04-06T12:36:39;10.80;72.00
13346;DHT22;6742;48.036;15.780;2023-04-06T12:39:06;10.90;74.40
13346;DHT22;6742;48.036;15.780;2023-04-06T12:41:33;10.90;74.10
13346;DHT22;6742;48.036;15.780;2023-04-06T12:44:01;10.80;75.50
13346;DHT22;6742;48.036;15.780;2023-04-06T12:46:29;10.80;73.50
13346;DHT22;6742;48.036;15.780;2023-04-06T12:48:56;10.70;73.90
13346;DHT22;6742;48.036;15.780;2023-04-06T12:51:24;10.70;75.60
13346;DHT22;6742;48.036;15.780;2023-04-06T12:53:55;10.80;74.60
13346;DHT22;6742;48.036;15.780;2023-04-06T12:56:22;10.80;73.70
13346;DHT22;6742;48.036;15.780;2023-04-06T12:58:50;10.80;72.80
13346;DHT22;6742;48.036;15.780;2023-04-06T13:01:18;10.70;74.20
13346;DHT22;6742;48.036;15.780;2023-04-06T13:03:45;10.70;74.60
13346;DHT22;6742;48.036;15.780;2023-04-06T13:06:12;10.70;75.10
13346;DHT22;6742;48.036;15.780;2023-04-06T13:08:40;10.80;75.80
13346;DHT22;6742;48.036;15.780;2023-04-06T13:11:09;10.80;74.40
13346;DHT22;6742;48.036;15.780;2023-04-06T13:13:36;10.80;75.00
13346;DHT22;6742;48.036;15.780;2023-04-06T13:16:06;10.80;74.80
13346;DHT22;6742;48.036;15.780;2023-04-06T13:18:34;10.80;75.30
13346;DHT22;6742;48.036;15.780;2023-04-06T13:21:04;10.70;74.80
13346;DHT22;6742;48.036;15.780;2023-04-06T13:23:31;10.60;75.10
13346;DHT22;6742;48.036;15.780;2023-04-06T13:25:59;10.50;74.90
13346;DHT22;6742;48.036;15.780;2023-04-06T13:28:28;10.40;77.40
13346;DHT22;6742;48.036;15.780;2023-04-06T13:30:55;10.50;76.10
13346;DHT22;6742;48.036;15.780;2023-04-06T13:33:22;10.50;75.30
13346;DHT22;6742;48.036;15.780;2023-04-06T13:35:50;10.70;76.80
13346;DHT22;6742;48.036;15.780;2023-04-06T13:38:17;10.80;75.30
13346;DHT22;6742;48.036;15.780;2023-04-06T13:40:44;10.90;75.30
13346;DHT22;6742;48.036;15.780;2023-04-06T13:43:11;10.80;75.30
13346;DHT22;6742;48.036;15.780;2023-04-06T13:45:39;10.90;75.30
13346;DHT22;6742;48.036;15.780;2023-04-06T13:48:07;10.90;74.50
13346;DHT22;6742;48.036;15.780;2023-04-06T13:50:34;10.90;74.60
13346;DHT22;6742;48.036;15.780;2023-04-06T13:53:01;10.80;75.00
13346;DHT22;6742;48.036;15.780;2023-04-06T13:55:28;10.60;75.20
13346;DHT22;6742;48.036;15.780;2023-04-06T13:57:56;10.70;75.50
13346;DHT22;6742;48.036;15.780;2023-04-06T14:00:24;10.60;75.30
13346;DHT22;6742;48.036;15.780;2023-04-06T14:02:53;10.70;77.20
13346;DHT22;6742;48.036;15.780;2023-04-06T14:05:20;10.70;76.60
13346;DHT22;6742;48.036;15.780;2023-04-06T14:07:49;10.60;77.60
13346;DHT22;6742;48.036;15.780;2023-04-06T14:10:16;10.50;76.90
13346;DHT22;6742;48.036;15.780;2023-04-06T14:12:43;10.60;77.80
13346;DHT22;6742;48.036;15.780;2023-04-06T14:15:11;10.70;77.90
13346;DHT22;6742;48.036;15.780;2023-04-06T14:17:38;10.80;78.40
13346;DHT22;6742;48.036;15.780;2023-04-06T14:20:08;10.80;75.00
13346;DHT22;6742;48.036;15.780;2023-04-06T14:22:39;10.90;76.70
13346;DHT22;6742;48.036;15.780;2023-04-06T14:25:07;10.90;77.40
13346;DHT22;6742;48.036;15.780;2023-04-06T14:27:34;10.80;77.20
13346;DHT22;6742;48.036;15.780;2023-04-06T14:30:01;10.80;77.90
13346;DHT22;6742;48.036;15.780;2023-04-06T14:32:28;10.70;78.30
13346;DHT22;6742;48.036;15.780;2023-04-06T14:34:55;10.50;78.30
13346;DHT22;6742;48.036;15.780;2023-04-06T14:37:23;10.50;79.40
13346;DHT22;6742;48.036;15.780;2023-04-06T14:39:50;10.50;78.30
13346;DHT22;6742;48.036;15.780;2023-04-06T14:42:20;10.50;77.50
13346;DHT22;6742;48.036;15.780;2023-04-06T14:44:47;10.40;77.00
13346;DHT22;6742;48.036;15.780;2023-04-06T14:47:14;10.40;75.50
13346;DHT22;6742;48.036;15.780;2023-04-06T14:49:45;10.50;77.20
13346;DHT22;6742;48.036;15.780;2023-04-06T14:52:12;10.60;77.20
13346;DHT22;6742;48.036;15.780;2023-04-06T14:54:41;10.70;76.90
13346;DHT22;6742;48.036;15.780;2023-04-06T14:57:08;10.80;76.90
13346;DHT22;6742;48.036;15.780;2023-04-06T14:59:35;10.90;76.50
13346;DHT22;6742;48.036;15.780;2023-04-06T15:02:02;11.00;76.70
13346;DHT22;6742;48.036;15.780;2023-04-06T15:04:29;11.10;76.70
13346;DHT22;6742;48.036;15.780;2023-04-06T15:06:56;11.00;75.30
13346;DHT22;6742;48.036;15.780;2023-04-06T15:09:23;10.90;77.60
13346;DHT22;6742;48.036;15.780;2023-04-06T15:11:52;10.80;75.10
13346;DHT22;6742;48.036;15.780;2023-04-06T15:14:19;10.70;75.30
13346;DHT22;6742;48.036;15.780;2023-04-06T15:16:45;10.60;75.60
13346;DHT22;6742;48.036;15.780;2023-04-06T15:19:12;10.60;75.90
13346;DHT22;6742;48.036;15.780;2023-04-06T15:21:39;10.40;75.80
13346;DHT22;6742;48.036;15.780;2023-04-06T15:24:07;10.40;77.40
13346;DHT22;6742;48.036;15.780;2023-04-06T15:26:35;10.20;76.10
13346;DHT22;6742;48.036;15.780;2023-04-06T15:29:03;10.00;76.10
13346;DHT22;6742;48.036;15.780;2023-04-06T15:31:30;9.90;76.90
13346;DHT22;6742;48.036;15.780;2023-04-06T15:33:58;9.90;77.80
13346;DHT22;6742;48.036;15.780;2023-04-06T15:36:26;9.90;77.90